Time;durP1;ratioP1;P1;durP2;ratioP2;P2;SDS_P1;SDS_P2;PMS_P1;PMS_P2;Temp;Humidity;BMP_temperature;BMP_pressure;BME280_temperature;BME280_humidity;BME280_pressure;Samples;Min_cycle;Max_cycle;Signal;HPM_P1;HPM_P2
2021/12/16 00:09:45;;;;;;;11.77;5.88;;;8.40;99.90;;;;;;5037224;28;20055;-50
2021/12/16 00:31:49;;;;;;;8.02;4.47;;;8.40;99.90;;;;;;5036637;28;20056;-49
2021/12/16 00:34:16;;;;;;;8.38;4.40;;;8.40;99.90;;;;;;5039173;28;20044;-49
2021/12/16 00:36:44;;;;;;;9.43;4.65;;;8.40;99.90;;;;;;5038016;28;20029;-49
2021/12/16 00:39:13;;;;;;;8.35;4.45;;;8.40;99.90;;;;;;5038330;28;20056;-49
2021/12/16 00:41:42;;;;;;;6.50;4.40;;;8.40;99.90;;;;;;5041789;28;20060;-49
2021/12/16 00:49:32;;;;;;;8.73;4.35;;;8.40;99.90;;;;;;5033557;28;20057;-48
2021/12/16 00:54:50;;;;;;;9.65;4.68;;;8.40;99.90;;;;;;5038259;28;20371;-49
2021/12/16 00:57:16;;;;;;;8.00;4.20;;;8.40;99.90;;;;;;5036164;28;20343;-49
2021/12/16 00:59:46;;;;;;;11.95;5.07;;;8.40;99.90;;;;;;5031407;28;20041;-49
2021/12/16 01:05:13;;;;;;;12.23;5.28;;;8.40;99.90;;;;;;5035768;28;20030;-49
2021/12/16 01:36:02;;;;;;;10.30;5.00;;;8.40;99.90;;;;;;5036391;28;20044;-49
2021/12/16 01:52:07;;;;;;;15.60;5.57;;;8.40;99.90;;;;;;5027131;28;20048;-49
2021/12/16 01:54:55;;;;;;;11.98;5.82;;;8.40;99.90;;;;;;5034206;28;20041;-49
2021/12/16 01:57:29;;;;;;;11.20;4.93;;;8.40;99.90;;;;;;5035432;28;20124;-48
2021/12/16 02:00:01;;;;;;;11.02;5.65;;;8.40;99.90;;;;;;5031857;28;20038;-49
2021/12/16 02:02:41;;;;;;;14.98;5.85;;;8.40;99.90;;;;;;5033356;28;20022;-48
2021/12/16 02:05:40;;;;;;;11.13;4.95;;;8.40;99.90;;;;;;5031934;28;20029;-49
2021/12/16 02:10:58;;;;;;;9.88;5.30;;;8.40;99.90;;;;;;5033439;28;20053;-49
2021/12/16 02:13:44;;;;;;;12.82;5.88;;;8.40;99.90;;;;;;5036623;28;20038;-49
2021/12/16 02:37:24;;;;;;;7.53;3.90;;;8.40;99.90;;;;;;5033487;28;20036;-49
2021/12/16 02:39:50;;;;;;;10.15;4.25;;;8.40;99.90;;;;;;5037214;28;20681;-49
2021/12/16 02:42:32;;;;;;;10.13;4.28;;;8.40;99.90;;;;;;5031916;28;20033;-49
2021/12/16 02:50:16;;;;;;;8.68;3.75;;;8.40;99.90;;;;;;5031746;28;20052;-49
2021/12/16 02:52:42;;;;;;;8.70;3.95;;;8.40;99.90;;;;;;5038733;28;20029;-49
2021/12/16 02:55:10;;;;;;;10.43;4.95;;;8.40;99.90;;;;;;5042823;28;20036;-49
2021/12/16 02:57:45;;;;;;;9.30;4.63;;;8.40;99.90;;;;;;5039875;28;20043;-48
2021/12/16 03:00:14;;;;;;;8.77;4.20;;;8.40;99.90;;;;;;5031303;28;20016;-49
2021/12/16 03:02:42;;;;;;;9.65;4.90;;;8.40;99.90;;;;;;5039191;28;20344;-49
2021/12/16 03:05:09;;;;;;;8.85;3.47;;;8.40;99.90;;;;;;5037646;28;20043;-49
2021/12/16 03:07:35;;;;;;;6.28;3.50;;;8.40;99.90;;;;;;5035893;28;20037;-49
2021/12/16 03:12:55;;;;;;;6.75;3.90;;;8.40;99.90;;;;;;5038323;28;20029;-49
2021/12/16 03:15:50;;;;;;;7.80;3.42;;;8.40;99.90;;;;;;5023982;28;20041;-48
2021/12/16 03:20:56;;;;;;;8.00;4.18;;;8.40;99.90;;;;;;5040362;28;20033;-49
2021/12/16 03:23:45;;;;;;;8.77;4.43;;;8.40;99.90;;;;;;5034741;28;20439;-49
2021/12/16 03:32:08;;;;;;;8.23;3.75;;;8.40;99.90;;;;;;5034949;28;20095;-49
2021/12/16 03:34:59;;;;;;;7.60;3.83;;;8.40;99.90;;;;;;5032548;28;20352;-49
2021/12/16 03:37:26;;;;;;;5.72;3.08;;;8.40;99.90;;;;;;5036999;28;20067;-49
2021/12/16 03:39:51;;;;;;;6.90;3.75;;;8.40;99.90;;;;;;5040845;28;20057;-49
2021/12/16 03:42:22;;;;;;;4.55;2.90;;;8.40;99.90;;;;;;5040819;28;20075;-49
2021/12/16 03:44:59;;;;;;;7.10;3.47;;;8.40;99.90;;;;;;5025547;28;20033;-49
2021/12/16 03:47:33;;;;;;;6.50;3.30;;;8.40;99.90;;;;;;5040992;28;20030;-49
2021/12/16 03:49:59;;;;;;;5.95;3.40;;;8.40;99.90;;;;;;5035268;28;20033;-49
2021/12/16 03:52:25;;;;;;;6.07;3.92;;;8.40;99.90;;;;;;5044139;28;20453;-48
2021/12/16 03:54:54;;;;;;;4.05;2.30;;;8.40;99.90;;;;;;5039768;28;20086;-49
2021/12/16 03:57:22;;;;;;;7.13;3.42;;;8.40;99.90;;;;;;5040672;28;20116;-49
2021/12/16 03:59:50;;;;;;;5.32;2.70;;;8.40;99.90;;;;;;5039157;28;20037;-49
2021/12/16 04:02:27;;;;;;;6.78;3.13;;;8.40;99.90;;;;;;5038163;28;20025;-49
2021/12/16 04:04:53;;;;;;;6.05;3.25;;;8.40;99.90;;;;;;5035651;28;20367;-49
2021/12/16 04:07:23;;;;;;;5.22;3.13;;;8.40;99.90;;;;;;5038811;28;20459;-49
2021/12/16 04:09:51;;;;;;;7.22;3.80;;;8.40;99.90;;;;;;5034357;28;20475;-49
2021/12/16 04:12:20;;;;;;;6.20;3.90;;;8.40;99.90;;;;;;5036929;28;20071;-49
2021/12/16 04:14:49;;;;;;;7.43;3.38;;;8.40;99.90;;;;;;5035788;28;20103;-49
2021/12/16 04:17:18;;;;;;;10.85;3.88;;;8.40;99.90;;;;;;5038064;28;20240;-49
2021/12/16 04:19:44;;;;;;;8.90;3.55;;;8.40;99.90;;;;;;5037313;28;20041;-49
2021/12/16 04:22:29;;;;;;;7.00;3.55;;;8.40;99.90;;;;;;5044279;28;20455;-49
2021/12/16 04:24:57;;;;;;;6.20;3.03;;;8.40;99.90;;;;;;5034006;28;20048;-49
2021/12/16 04:27:24;;;;;;;7.90;4.10;;;8.40;99.90;;;;;;5034896;28;20423;-49
2021/12/16 04:29:51;;;;;;;7.20;3.63;;;8.40;99.90;;;;;;5034870;28;20034;-49
2021/12/16 04:32:18;;;;;;;6.85;3.67;;;8.40;99.90;;;;;;5041233;28;20087;-49
2021/12/16 04:34:44;;;;;;;12.90;4.57;;;8.40;99.90;;;;;;5041114;28;20133;-49
2021/12/16 04:37:10;;;;;;;9.07;4.55;;;8.40;99.90;;;;;;5037447;28;20136;-48
2021/12/16 04:39:38;;;;;;;11.57;4.60;;;8.40;99.90;;;;;;5038395;28;20034;-49
2021/12/16 04:42:05;;;;;;;8.23;4.20;;;8.40;99.90;;;;;;5036903;28;20401;-49
2021/12/16 04:44:32;;;;;;;9.50;4.43;;;8.40;99.90;;;;;;5031695;28;20033;-49
2021/12/16 04:47:00;;;;;;;11.15;4.18;;;8.40;99.90;;;;;;5036280;28;20040;-49
2021/12/16 04:49:26;;;;;;;9.02;4.47;;;8.40;99.90;;;;;;5039378;28;20029;-49
2021/12/16 04:51:55;;;;;;;12.02;4.60;;;8.40;99.90;;;;;;5036101;28;20124;-49
2021/12/16 04:54:23;;;;;;;10.55;4.25;;;8.40;99.90;;;;;;5038677;28;20362;-48
2021/12/16 04:56:51;;;;;;;10.32;4.15;;;8.40;99.90;;;;;;5039004;28;20695;-49
2021/12/16 04:59:19;;;;;;;8.18;4.15;;;8.40;99.90;;;;;;5036559;28;20037;-49
2021/12/16 05:01:52;;;;;;;11.00;4.20;;;8.40;99.90;;;;;;5037281;28;20079;-49
2021/12/16 05:04:17;;;;;;;9.10;3.58;;;8.40;99.90;;;;;;5040059;28;20465;-49
2021/12/16 05:06:43;;;;;;;9.13;4.10;;;8.40;99.90;;;;;;5036877;28;20065;-49
2021/12/16 05:09:12;;;;;;;12.85;4.00;;;8.40;99.90;;;;;;5033853;28;20076;-49
2021/12/16 05:11:38;;;;;;;12.20;4.20;;;8.40;99.90;;;;;;5033655;28;20040;-49
2021/12/16 05:14:06;;;;;;;7.90;3.40;;;8.40;99.90;;;;;;5038215;28;20041;-49
2021/12/16 05:16:31;;;;;;;9.80;4.10;;;8.40;99.90;;;;;;5032073;28;20035;-49
2021/12/16 05:18:57;;;;;;;9.00;4.28;;;8.40;99.90;;;;;;5034199;28;20352;-49
2021/12/16 05:26:40;;;;;;;5.93;3.28;;;8.40;99.90;;;;;;5022323;28;20029;-49
2021/12/16 05:29:06;;;;;;;12.05;3.58;;;8.40;99.90;;;;;;5024824;28;20338;-49
2021/12/16 05:31:32;;;;;;;8.48;4.00;;;8.40;99.90;;;;;;5026899;28;20029;-49
2021/12/16 05:34:00;;;;;;;13.60;4.15;;;8.40;99.90;;;;;;5024011;28;20152;-49
2021/12/16 05:36:26;;;;;;;7.47;3.78;;;8.40;99.90;;;;;;5026642;28;20439;-49
2021/12/16 05:38:52;;;;;;;5.95;3.50;;;8.40;99.90;;;;;;5024986;28;20029;-49
2021/12/16 05:41:21;;;;;;;7.28;3.28;;;8.40;99.90;;;;;;5042013;28;20025;-49
2021/12/16 05:43:47;;;;;;;7.57;3.08;;;8.40;99.90;;;;;;5038864;28;20030;-49
2021/12/16 05:46:15;;;;;;;7.30;3.13;;;8.40;99.90;;;;;;5023553;28;20037;-49
2021/12/16 05:48:44;;;;;;;8.82;3.17;;;8.40;99.90;;;;;;5036375;28;20064;-49
2021/12/16 05:51:14;;;;;;;5.93;2.72;;;8.40;99.90;;;;;;5034687;28;20043;-49
2021/12/16 05:53:41;;;;;;;10.18;4.20;;;8.40;99.90;;;;;;5027962;28;20036;-49
2021/12/16 05:56:07;;;;;;;6.40;3.47;;;8.40;99.90;;;;;;5037225;28;20036;-49
2021/12/16 05:58:34;;;;;;;6.13;2.67;;;8.40;99.90;;;;;;5028499;28;20108;-49
2021/12/16 06:01:04;;;;;;;5.88;2.72;;;8.40;99.90;;;;;;5032713;28;20075;-49
2021/12/16 06:03:31;;;;;;;10.68;3.75;;;8.40;99.90;;;;;;5040922;28;20115;-49
2021/12/16 06:05:58;;;;;;;7.45;2.90;;;8.40;99.90;;;;;;5040874;28;20033;-49
2021/12/16 06:08:24;;;;;;;9.23;3.50;;;8.40;99.90;;;;;;5032199;28;20030;-49
2021/12/16 06:13:32;;;;;;;4.47;2.22;;;8.40;99.90;;;;;;5038401;28;20068;-49
2021/12/16 06:29:22;;;;;;;7.25;3.13;;;8.30;99.90;;;;;;5039136;28;20037;-49
2021/12/16 06:31:48;;;;;;;4.82;2.83;;;8.40;99.90;;;;;;5035926;28;20087;-49
2021/12/16 06:34:13;;;;;;;8.07;3.67;;;8.30;99.90;;;;;;5041291;28;20029;-49
2021/12/16 06:36:39;;;;;;;5.07;2.63;;;8.40;99.90;;;;;;5039477;28;20105;-49
2021/12/16 06:39:05;;;;;;;8.18;2.97;;;8.40;99.90;;;;;;5040645;28;20025;-49
2021/12/16 06:41:35;;;;;;;5.20;2.78;;;8.40;99.90;;;;;;5040894;28;20037;-49
2021/12/16 06:44:06;;;;;;;5.63;2.88;;;8.30;99.90;;;;;;5038524;28;20113;-49
2021/12/16 06:46:36;;;;;;;5.93;2.45;;;8.40;99.90;;;;;;5031393;28;20481;-50
2021/12/16 06:49:03;;;;;;;6.03;2.83;;;8.40;99.90;;;;;;5040558;28;20044;-49
2021/12/16 06:51:43;;;;;;;5.60;2.47;;;8.40;99.90;;;;;;5035677;28;20044;-49
2021/12/16 06:54:14;;;;;;;6.72;2.50;;;8.30;99.90;;;;;;5036158;28;20045;-49
2021/12/16 06:56:51;;;;;;;5.80;3.10;;;8.40;99.90;;;;;;5041865;28;20049;-49
2021/12/16 06:59:24;;;;;;;5.60;2.75;;;8.40;99.90;;;;;;5034849;28;20025;-49
2021/12/16 07:04:34;;;;;;;8.05;3.03;;;8.40;99.90;;;;;;5035475;28;20071;-49
2021/12/16 07:07:00;;;;;;;5.82;3.03;;;8.40;99.90;;;;;;5039782;28;20025;-49
2021/12/16 07:09:27;;;;;;;10.15;3.58;;;8.40;99.90;;;;;;5039916;28;20474;-49
2021/12/16 07:11:57;;;;;;;6.22;2.90;;;8.40;99.90;;;;;;5039847;28;20410;-49
2021/12/16 07:14:34;;;;;;;8.63;3.47;;;8.40;99.90;;;;;;5041292;28;20036;-49
2021/12/16 07:17:13;;;;;;;6.70;3.22;;;8.40;99.90;;;;;;5030726;28;20025;-49
2021/12/16 07:19:41;;;;;;;12.48;3.03;;;8.40;99.90;;;;;;5042155;28;20028;-49
2021/12/16 07:22:08;;;;;;;4.07;2.47;;;8.40;99.90;;;;;;5039070;28;20043;-49
2021/12/16 07:24:34;;;;;;;6.40;3.17;;;8.40;99.90;;;;;;5039793;28;20021;-49
2021/12/16 07:27:00;;;;;;;6.60;3.10;;;8.40;99.90;;;;;;5039438;28;20052;-49
2021/12/16 07:29:27;;;;;;;8.60;3.33;;;8.40;99.90;;;;;;5040653;28;20355;-49
2021/12/16 07:31:54;;;;;;;7.80;3.47;;;8.40;99.90;;;;;;5034156;28;20090;-49
2021/12/16 07:34:20;;;;;;;7.55;3.33;;;8.40;99.90;;;;;;5038450;28;20477;-49
2021/12/16 07:36:46;;;;;;;7.22;3.08;;;8.40;99.90;;;;;;5041083;28;20061;-49
2021/12/16 07:39:15;;;;;;;9.90;3.38;;;8.40;99.90;;;;;;5040039;28;20465;-49
2021/12/16 07:41:46;;;;;;;5.93;2.97;;;8.40;99.90;;;;;;5043899;28;20013;-49
2021/12/16 07:44:13;;;;;;;6.50;3.15;;;8.40;99.90;;;;;;5044219;28;20465;-49
2021/12/16 07:46:49;;;;;;;8.57;2.90;;;8.40;99.90;;;;;;5032258;28;20112;-49
2021/12/16 07:49:19;;;;;;;7.03;3.50;;;8.40;99.90;;;;;;5039984;28;20033;-49
2021/12/16 07:51:45;;;;;;;6.97;3.38;;;8.40;99.90;;;;;;5042110;28;20025;-49
2021/12/16 07:54:13;;;;;;;7.93;3.20;;;8.40;99.90;;;;;;5043812;28;20136;-49
2021/12/16 07:56:39;;;;;;;5.90;3.15;;;8.40;99.90;;;;;;5038861;28;20033;-49
2021/12/16 07:59:07;;;;;;;8.88;3.55;;;8.40;99.90;;;;;;5044605;28;20029;-49
2021/12/16 08:01:37;;;;;;;7.53;3.65;;;8.40;99.90;;;;;;5035481;28;20076;-49
2021/12/16 08:04:03;;;;;;;6.90;3.53;;;8.40;99.90;;;;;;5043288;28;20037;-49
2021/12/16 08:06:31;;;;;;;6.57;3.08;;;8.40;99.90;;;;;;5041337;28;20045;-49
2021/12/16 08:09:03;;;;;;;7.22;3.08;;;8.40;99.90;;;;;;5044043;28;20389;-49
2021/12/16 08:11:32;;;;;;;8.27;3.95;;;8.40;99.90;;;;;;5038862;28;20071;-49
2021/12/16 08:13:57;;;;;;;6.90;3.60;;;8.40;99.90;;;;;;5042889;28;20471;-49
2021/12/16 08:16:23;;;;;;;8.10;3.25;;;8.40;99.90;;;;;;5036526;28;20127;-49
2021/12/16 08:18:52;;;;;;;6.15;3.75;;;8.40;99.90;;;;;;5038985;28;20033;-49
2021/12/16 08:21:19;;;;;;;8.13;3.05;;;8.40;99.90;;;;;;5043787;28;20053;-49
2021/12/16 08:23:45;;;;;;;6.45;2.97;;;8.40;99.90;;;;;;5039876;28;20098;-49
2021/12/16 08:26:12;;;;;;;7.25;3.50;;;8.40;99.90;;;;;;5041180;28;20439;-49
2021/12/16 08:28:37;;;;;;;8.75;3.70;;;8.40;99.90;;;;;;5043410;28;20025;-49
2021/12/16 08:31:06;;;;;;;7.60;3.22;;;8.40;99.90;;;;;;5042699;28;20355;-49
2021/12/16 08:33:32;;;;;;;6.25;3.58;;;8.40;99.90;;;;;;5038670;28;20037;-49
2021/12/16 08:35:59;;;;;;;5.95;3.08;;;8.40;99.90;;;;;;5042746;28;20047;-49
2021/12/16 08:38:25;;;;;;;5.95;2.90;;;8.40;99.90;;;;;;5044499;28;20025;-49
2021/12/16 08:40:55;;;;;;;8.23;3.53;;;8.40;99.90;;;;;;5037234;28;20112;-49
2021/12/16 08:43:22;;;;;;;7.70;3.23;;;8.40;99.90;;;;;;5042674;28;20511;-49
2021/12/16 08:45:48;;;;;;;5.55;2.80;;;8.40;99.90;;;;;;5041713;28;20026;-49
2021/12/16 08:48:14;;;;;;;10.93;3.45;;;8.40;99.90;;;;;;5037377;28;20021;-49
2021/12/16 08:50:47;;;;;;;7.20;3.25;;;8.40;99.90;;;;;;5036948;28;20037;-49
2021/12/16 08:53:13;;;;;;;5.43;2.63;;;8.40;99.90;;;;;;5037494;28;20026;-49
2021/12/16 08:55:42;;;;;;;5.88;3.00;;;8.40;99.90;;;;;;5042541;28;20044;-49
2021/12/16 08:58:08;;;;;;;6.55;2.40;;;8.40;99.90;;;;;;5042206;28;20088;-49
2021/12/16 09:00:43;;;;;;;6.18;3.17;;;8.40;99.90;;;;;;5042299;28;20030;-49
2021/12/16 09:03:09;;;;;;;6.68;3.55;;;8.40;99.90;;;;;;5030984;28;20048;-49
2021/12/16 09:05:35;;;;;;;7.30;3.00;;;8.40;99.90;;;;;;5042097;28;20025;-49
2021/12/16 09:08:00;;;;;;;5.03;3.20;;;8.40;99.90;;;;;;5041149;28;20036;-49
2021/12/16 09:10:31;;;;;;;7.28;3.50;;;8.40;99.90;;;;;;5041674;28;20033;-49
2021/12/16 09:13:04;;;;;;;9.98;3.47;;;8.40;99.90;;;;;;5042611;28;20405;-49
2021/12/16 09:15:34;;;;;;;8.45;3.72;;;8.40;99.90;;;;;;5035335;28;20057;-49
2021/12/16 09:18:02;;;;;;;8.93;3.33;;;8.40;99.90;;;;;;5035679;28;20104;-49
2021/12/16 09:20:29;;;;;;;6.13;3.08;;;8.40;99.90;;;;;;5042163;28;20082;-49
2021/12/16 09:22:55;;;;;;;9.35;4.32;;;8.40;99.90;;;;;;5040962;28;20032;-49
2021/12/16 09:25:21;;;;;;;7.68;3.55;;;8.40;99.90;;;;;;5041804;28;20115;-49
2021/12/16 09:27:47;;;;;;;12.80;3.72;;;8.40;99.90;;;;;;5039432;28;20435;-49
2021/12/16 09:30:18;;;;;;;8.50;4.22;;;8.40;99.90;;;;;;5042694;28;20024;-49
2021/12/16 09:32:45;;;;;;;8.02;3.65;;;8.40;99.90;;;;;;5034113;28;20040;-49
2021/12/16 09:35:12;;;;;;;8.60;3.45;;;8.40;99.90;;;;;;5039816;28;20336;-49
2021/12/16 09:37:38;;;;;;;7.57;3.90;;;8.40;99.90;;;;;;5042586;28;20025;-49
2021/12/16 09:40:10;;;;;;;5.93;3.25;;;8.40;99.90;;;;;;5039913;28;20351;-49
2021/12/16 09:42:37;;;;;;;9.90;3.90;;;8.40;99.90;;;;;;5036327;28;20091;-49
2021/12/16 09:45:05;;;;;;;7.55;3.70;;;8.40;99.90;;;;;;5040923;28;20029;-49
2021/12/16 09:47:31;;;;;;;5.50;3.00;;;8.40;99.90;;;;;;5034607;28;20026;-49
2021/12/16 09:49:57;;;;;;;7.72;3.95;;;8.40;99.90;;;;;;5038304;28;20013;-49
2021/12/16 09:52:23;;;;;;;8.60;3.80;;;8.40;99.90;;;;;;5042682;28;20024;-50
2021/12/16 09:54:48;;;;;;;7.13;3.65;;;8.40;99.90;;;;;;5038981;28;20096;-49
2021/12/16 09:57:16;;;;;;;9.15;3.47;;;8.40;99.90;;;;;;5041277;28;20029;-50
2021/12/16 09:59:42;;;;;;;8.63;3.85;;;8.40;99.90;;;;;;5042464;28;20111;-49
2021/12/16 10:02:15;;;;;;;11.10;3.75;;;8.40;99.90;;;;;;5035797;28;20116;-49
2021/12/16 10:04:41;;;;;;;8.32;3.75;;;8.40;99.90;;;;;;5037215;28;20124;-49
2021/12/16 10:07:13;;;;;;;6.93;3.35;;;8.40;99.90;;;;;;5041722;28;20029;-49
2021/12/16 10:09:40;;;;;;;8.68;4.05;;;8.40;99.90;;;;;;5035895;28;20035;-50
2021/12/16 10:12:12;;;;;;;9.07;3.80;;;8.40;99.90;;;;;;5041234;28;20029;-49
2021/12/16 10:14:59;;;;;;;10.85;4.65;;;8.40;99.90;;;;;;5041791;28;20040;-49
2021/12/16 10:17:30;;;;;;;6.22;3.05;;;8.40;99.90;;;;;;5032789;28;20087;-49
2021/12/16 10:20:07;;;;;;;7.60;3.97;;;8.40;99.90;;;;;;5037437;28;20434;-49
2021/12/16 10:22:39;;;;;;;9.43;4.18;;;8.40;99.90;;;;;;5037901;28;20025;-49
2021/12/16 10:25:42;;;;;;;13.25;4.03;;;8.40;99.90;;;;;;5039142;28;20341;-49
2021/12/16 10:28:12;;;;;;;7.13;3.03;;;8.40;99.90;;;;;;5012914;28;20038;-49
2021/12/16 10:30:43;;;;;;;;;;;8.40;99.90;;;;;;5018376;28;20053;-49
2021/12/16 10:33:16;;;;;;;8.35;3.35;;;8.50;99.90;;;;;;5017466;28;19921;-49
2021/12/16 10:35:47;;;;;;;10.13;3.88;;;8.40;99.90;;;;;;5015582;28;20059;-49
2021/12/16 10:38:15;;;;;;;8.38;3.70;;;8.40;99.90;;;;;;5015935;28;20070;-49
2021/12/16 10:40:43;;;;;;;10.88;4.25;;;8.40;99.90;;;;;;5016965;28;20049;-49
2021/12/16 10:43:32;;;;;;;8.77;3.78;;;8.40;99.90;;;;;;5019011;28;20079;-49
2021/12/16 10:46:18;;;;;;;8.80;4.00;;;8.40;99.90;;;;;;5009140;28;20410;-49
2021/12/16 10:48:44;;;;;;;6.40;3.42;;;8.40;99.90;;;;;;5017295;28;20116;-49
2021/12/16 10:51:23;;;;;;;12.25;5.10;;;8.50;99.90;;;;;;5018159;28;20030;-49
2021/12/16 10:53:59;;;;;;;10.93;4.75;;;8.50;99.90;;;;;;5013759;28;20046;-49
2021/12/16 10:56:27;;;;;;;6.72;3.45;;;8.50;99.90;;;;;;5016048;28;20356;-49
2021/12/16 10:58:55;;;;;;;12.38;4.97;;;8.40;99.90;;;;;;5019382;28;20042;-49
2021/12/16 11:01:30;;;;;;;10.07;3.78;;;8.50;99.90;;;;;;5016400;28;20048;-49
2021/12/16 11:03:56;;;;;;;11.35;4.40;;;8.40;99.90;;;;;;5019601;28;20034;-50
2021/12/16 11:06:31;;;;;;;6.25;3.83;;;8.50;99.90;;;;;;5037874;28;20034;-49
2021/12/16 11:09:28;;;;;;;7.40;4.07;;;8.50;99.90;;;;;;5036059;28;20030;-49
2021/12/16 11:12:08;;;;;;;9.70;4.70;;;8.50;99.90;;;;;;5025854;28;20034;-49
2021/12/16 11:14:34;;;;;;;;;;;8.50;99.90;;;;;;5043333;28;20041;-49
2021/12/16 11:17:05;;;;;;;8.05;3.72;;;8.50;99.90;;;;;;5038065;28;19909;-49
2021/12/16 11:19:47;;;;;;;8.48;3.95;;;8.40;99.90;;;;;;5038580;28;20475;-49
2021/12/16 11:22:34;;;;;;;6.95;3.42;;;8.50;99.90;;;;;;5039186;28;20038;-49
2021/12/16 11:25:27;;;;;;;7.65;3.40;;;8.50;99.90;;;;;;5041114;28;20455;-50
2021/12/16 11:28:06;;;;;;;9.80;3.58;;;8.50;99.90;;;;;;5038654;28;20051;-49
2021/12/16 11:30:40;;;;;;;6.63;3.83;;;8.50;99.90;;;;;;5042845;28;20055;-49
2021/12/16 11:33:21;;;;;;;7.53;3.53;;;8.50;99.90;;;;;;5034211;28;20368;-49
2021/12/16 11:35:58;;;;;;;8.57;3.78;;;8.50;99.90;;;;;;5043725;28;20047;-49
2021/12/16 11:38:51;;;;;;;6.72;3.20;;;8.50;99.90;;;;;;5036037;28;20064;-49
2021/12/16 11:41:35;;;;;;;5.80;2.35;;;8.50;99.90;;;;;;5039146;28;20017;-49
2021/12/16 11:44:09;;;;;;;8.32;2.97;;;8.50;99.90;;;;;;5038253;28;20022;-49
2021/12/16 11:46:48;;;;;;;8.13;3.38;;;8.50;99.90;;;;;;5042746;28;20033;-49
2021/12/16 11:49:34;;;;;;;7.43;3.67;;;8.50;99.90;;;;;;5033680;28;20063;-49
2021/12/16 11:52:08;;;;;;;7.35;3.70;;;8.50;99.90;;;;;;5044310;28;20049;-49
2021/12/16 11:54:41;;;;;;;8.55;3.67;;;8.50;99.90;;;;;;5039849;28;20033;-49
2021/12/16 11:57:25;;;;;;;8.07;4.03;;;8.50;99.90;;;;;;5042057;28;20021;-49
2021/12/16 12:00:03;;;;;;;8.40;3.58;;;8.50;99.90;;;;;;5040493;28;20359;-49
2021/12/16 12:02:36;;;;;;;7.45;4.30;;;8.50;99.90;;;;;;5041446;28;20390;-49
2021/12/16 12:05:23;;;;;;;8.57;4.00;;;8.50;99.90;;;;;;5035753;28;20026;-49
2021/12/16 12:07:58;;;;;;;9.23;3.88;;;8.50;99.90;;;;;;5038298;28;20071;-49
2021/12/16 12:10:38;;;;;;;8.02;4.05;;;8.50;99.90;;;;;;5042188;28;20341;-49
2021/12/16 12:13:07;;;;;;;7.15;3.20;;;8.50;99.90;;;;;;5039572;28;20029;-49
2021/12/16 12:15:49;;;;;;;7.97;3.92;;;8.50;99.90;;;;;;5041754;28;20036;-49
2021/12/16 12:18:47;;;;;;;6.85;3.55;;;8.50;99.90;;;;;;5035561;28;20022;-49
2021/12/16 12:21:30;;;;;;;8.55;4.43;;;8.50;99.90;;;;;;5032919;28;20343;-49
2021/12/16 12:24:11;;;;;;;6.88;3.20;;;8.50;99.90;;;;;;5039658;28;20025;-49
2021/12/16 12:26:52;;;;;;;9.85;3.70;;;8.60;99.90;;;;;;5043660;28;20009;-49
2021/12/16 12:29:28;;;;;;;12.73;3.55;;;8.60;99.90;;;;;;5040370;28;20021;-49
2021/12/16 12:31:59;;;;;;;6.90;3.15;;;8.60;99.90;;;;;;5040685;28;20032;-49
2021/12/16 12:34:26;;;;;;;7.18;3.42;;;8.60;99.90;;;;;;5040249;28;20033;-49
2021/12/16 12:36:54;;;;;;;5.78;3.10;;;8.60;99.90;;;;;;5041242;28;20079;-49
2021/12/16 12:39:23;;;;;;;7.05;3.55;;;8.50;99.90;;;;;;5042100;28;20033;-49
2021/12/16 12:41:49;;;;;;;6.30;3.65;;;8.60;99.90;;;;;;5043404;28;20029;-49
2021/12/16 12:44:15;;;;;;;7.80;3.90;;;8.60;99.90;;;;;;5040809;28;20029;-49
2021/12/16 12:46:43;;;;;;;5.38;2.63;;;8.60;99.90;;;;;;5042453;28;20068;-49
2021/12/16 12:49:14;;;;;;;7.25;2.67;;;8.60;99.90;;;;;;5037636;28;20056;-49
2021/12/16 12:51:45;;;;;;;6.40;3.35;;;8.60;99.90;;;;;;5041498;28;20044;-49
2021/12/16 12:54:31;;;;;;;6.18;2.85;;;8.60;99.90;;;;;;5043165;28;20365;-49
2021/12/16 12:57:16;;;;;;;6.10;2.92;;;8.60;99.90;;;;;;5041363;28;20022;-49
2021/12/16 12:59:42;;;;;;;4.40;2.80;;;8.60;99.90;;;;;;5040885;28;20120;-49
2021/12/16 13:02:34;;;;;;;7.88;3.55;;;8.60;99.90;;;;;;5041144;28;20109;-49
2021/12/16 13:05:09;;;;;;;6.82;2.92;;;8.60;99.90;;;;;;5030742;28;20141;-49
2021/12/16 13:07:44;;;;;;;3.78;2.45;;;8.60;99.90;;;;;;5037157;28;20029;-49
2021/12/16 13:10:16;;;;;;;5.65;2.60;;;8.60;99.90;;;;;;5041344;28;20098;-49
2021/12/16 13:24:26;;;;;;;5.80;2.92;;;8.60;99.90;;;;;;5042818;28;20004;-49
2021/12/16 13:30:04;;;;;;;;;;;8.60;99.90;;;;;;5042276;28;20025;-49
2021/12/16 13:32:41;;;;;;;4.10;2.47;;;8.60;99.90;;;;;;5041050;28;19908;-49
2021/12/16 13:37:52;;;;;;;10.02;3.33;;;8.60;99.90;;;;;;5041638;28;20108;-49
2021/12/16 13:40:29;;;;;;;6.15;2.90;;;8.60;99.90;;;;;;5036446;28;20024;-49
2021/12/16 13:43:00;;;;;;;9.00;2.65;;;8.60;99.90;;;;;;5040140;28;20025;-49
2021/12/16 13:45:29;;;;;;;;;;;8.60;99.90;;;;;;5042786;28;20051;-49
2021/12/16 13:48:34;;;;;;;5.18;2.88;;;8.60;99.90;;;;;;5039527;28;19916;-49
2021/12/16 14:02:52;;;;;;;15.57;3.28;;;8.60;99.90;;;;;;5042246;28;20066;-49
2021/12/16 14:05:54;;;;;;;4.43;2.22;;;8.70;99.90;;;;;;5036053;28;20032;-50
2021/12/16 14:08:34;;;;;;;8.73;3.35;;;8.70;99.90;;;;;;5036238;28;20061;-49
2021/12/16 14:11:11;;;;;;;8.23;3.88;;;8.70;99.90;;;;;;5039628;28;20088;-49
2021/12/16 14:25:10;;;;;;;8.95;3.78;;;8.70;99.90;;;;;;5036283;28;20040;-49
2021/12/16 14:47:03;;;;;;;8.75;3.65;;;8.70;99.90;;;;;;5030207;28;20112;-50
2021/12/16 14:49:30;;;;;;;7.65;3.50;;;8.70;99.90;;;;;;5039593;28;20029;-49
2021/12/16 14:51:58;;;;;;;8.27;3.60;;;8.70;99.90;;;;;;5038140;28;20026;-50
2021/12/16 14:54:24;;;;;;;9.10;3.63;;;8.70;99.90;;;;;;5043221;28;20037;-49
2021/12/16 14:56:50;;;;;;;7.75;3.40;;;8.70;99.90;;;;;;5043538;28;20481;-49
2021/12/16 14:59:18;;;;;;;5.90;3.22;;;8.70;99.90;;;;;;5044057;28;20033;-50
2021/12/16 15:01:49;;;;;;;12.68;4.03;;;8.70;99.90;;;;;;5043278;28;20129;-49
2021/12/16 15:04:21;;;;;;;5.45;3.03;;;8.70;99.90;;;;;;5038827;28;20033;-49
2021/12/16 15:06:53;;;;;;;9.25;3.65;;;8.70;99.90;;;;;;5032456;28;20034;-49
2021/12/16 15:12:05;;;;;;;9.13;3.88;;;8.70;99.90;;;;;;5042654;28;20025;-49
2021/12/16 15:17:49;;;;;;;;;;;8.70;99.90;;;;;;5040551;28;20025;-50
2021/12/16 15:45:22;;;;;;;9.95;4.68;;;8.70;99.90;;;;;;5040241;28;20033;-50
2021/12/16 15:48:11;;;;;;;11.02;4.10;;;8.70;99.90;;;;;;5042297;28;20112;-51
2021/12/16 15:50:39;;;;;;;7.28;4.20;;;8.70;99.90;;;;;;5033637;28;20104;-50
2021/12/16 15:53:08;;;;;;;9.95;3.75;;;8.70;99.90;;;;;;5042843;28;20116;-50
2021/12/16 15:55:41;;;;;;;11.23;4.80;;;8.70;99.90;;;;;;5043909;28;20029;-50
2021/12/16 15:58:13;;;;;;;9.68;4.88;;;8.70;99.90;;;;;;5043596;28;20041;-50
2021/12/16 16:00:42;;;;;;;13.15;4.97;;;8.70;99.90;;;;;;5040508;28;20072;-50
2021/12/16 16:03:10;;;;;;;8.88;4.80;;;8.70;99.90;;;;;;5038463;28;20025;-50
2021/12/16 16:05:39;;;;;;;12.77;5.22;;;8.70;99.90;;;;;;5038179;28;20041;-51
2021/12/16 16:08:09;;;;;;;13.77;4.27;;;8.70;99.90;;;;;;5042750;28;20037;-51
2021/12/16 16:10:37;;;;;;;20.95;7.90;;;8.70;99.90;;;;;;5041795;28;20052;-50
2021/12/16 16:13:09;;;;;;;13.90;6.60;;;8.70;99.90;;;;;;5044474;28;20102;-50
2021/12/16 16:15:35;;;;;;;14.93;6.18;;;8.70;99.90;;;;;;5041667;28;20044;-50
2021/12/16 16:18:13;;;;;;;11.48;3.88;;;8.70;99.90;;;;;;5042508;28;20448;-50
2021/12/16 16:20:43;;;;;;;10.75;5.55;;;8.70;99.90;;;;;;5031565;28;20044;-50
2021/12/16 16:23:11;;;;;;;12.57;4.90;;;8.70;99.90;;;;;;5040818;28;20332;-50
2021/12/16 16:25:38;;;;;;;12.80;5.10;;;8.70;99.90;;;;;;5042082;28;20082;-50
2021/12/16 16:28:05;;;;;;;11.98;4.47;;;8.70;99.90;;;;;;5043370;28;20040;-50
2021/12/16 16:30:32;;;;;;;4.97;3.17;;;8.70;99.90;;;;;;5041012;28;20026;-50
2021/12/16 16:33:09;;;;;;;8.13;3.65;;;8.70;99.90;;;;;;5044582;28;20120;-50
2021/12/16 16:35:46;;;;;;;6.80;3.72;;;8.70;99.90;;;;;;5036105;28;20045;-50
2021/12/16 16:38:19;;;;;;;8.70;3.30;;;8.70;99.90;;;;;;5040610;28;20351;-50
2021/12/16 16:40:49;;;;;;;6.97;3.38;;;8.70;99.90;;;;;;5042833;28;20354;-50
2021/12/16 16:43:21;;;;;;;9.07;3.38;;;8.70;99.90;;;;;;5042474;28;20029;-50
2021/12/16 16:45:50;;;;;;;6.85;2.50;;;8.70;99.90;;;;;;5039698;28;20447;-50
2021/12/16 16:48:41;;;;;;;5.60;2.90;;;8.70;99.90;;;;;;5041457;28;20029;-50
2021/12/16 16:51:11;;;;;;;3.67;2.03;;;8.70;99.90;;;;;;5034109;28;20249;-50
2021/12/16 16:53:56;;;;;;;5.32;2.78;;;8.70;99.90;;;;;;5040509;28;20121;-49
2021/12/16 16:56:50;;;;;;;9.20;4.15;;;8.70;99.90;;;;;;5038084;28;20362;-49
2021/12/16 16:59:27;;;;;;;8.00;4.15;;;8.70;99.90;;;;;;5037073;28;20040;-50
2021/12/16 17:01:53;;;;;;;9.95;4.38;;;8.70;99.90;;;;;;5030513;28;20108;-50
2021/12/16 17:04:20;;;;;;;12.30;4.10;;;8.70;99.90;;;;;;5030284;28;20510;-50
2021/12/16 17:06:54;;;;;;;4.80;3.33;;;8.70;99.90;;;;;;5027140;28;20036;-50
2021/12/16 17:09:21;;;;;;;11.70;4.13;;;8.70;99.90;;;;;;5029915;28;20036;-50
2021/12/16 17:11:50;;;;;;;8.65;4.40;;;8.70;99.90;;;;;;5038140;28;20025;-50
2021/12/16 17:14:21;;;;;;;10.95;4.97;;;8.70;99.90;;;;;;5035846;28;20167;-50